sensor_id;sensor_type;location;lat;lon;timestamp;P1;durP1;ratioP1;P2;durP2;ratioP2
9459;SDS011;4768;42.664;23.240;2022-09-03T00:02:03;0.00;;;0.00;;
9459;SDS011;4768;42.664;23.240;2022-09-03T00:04:36;0.20;;;0.20;;
9459;SDS011;4768;42.664;23.240;2022-09-03T00:07:12;0.00;;;0.00;;
9459;SDS011;4768;42.664;23.240;2022-09-03T00:09:45;0.00;;;0.00;;
9459;SDS011;4768;42.664;23.240;2022-09-03T00:12:17;0.10;;;0.10;;
9459;SDS011;4768;42.664;23.240;2022-09-03T00:14:49;0.00;;;0.00;;
9459;SDS011;4768;42.664;23.240;2022-09-03T00:17:21;0.00;;;0.00;;
9459;SDS011;4768;42.664;23.240;2022-09-03T00:19:53;0.03;;;0.00;;
9459;SDS011;4768;42.664;23.240;2022-09-03T00:22:25;0.00;;;0.00;;
9459;SDS011;4768;42.664;23.240;2022-09-03T00:24:55;0.40;;;0.20;;
9459;SDS011;4768;42.664;23.240;2022-09-03T00:27:25;0.40;;;0.10;;
9459;SDS011;4768;42.664;23.240;2022-09-03T00:29:55;0.30;;;0.20;;
9459;SDS011;4768;42.664;23.240;2022-09-03T00:32:35;0.20;;;0.10;;
9459;SDS011;4768;42.664;23.240;2022-09-03T00:35:05;0.13;;;0.10;;
9459;SDS011;4768;42.664;23.240;2022-09-03T00:37:41;0.20;;;0.20;;
9459;SDS011;4768;42.664;23.240;2022-09-03T00:40:09;0.10;;;0.10;;
9459;SDS011;4768;42.664;23.240;2022-09-03T00:42:46;0.00;;;0.00;;
9459;SDS011;4768;42.664;23.240;2022-09-03T00:45:23;0.43;;;0.30;;
9459;SDS011;4768;42.664;23.240;2022-09-03T00:48:02;0.40;;;0.40;;
9459;SDS011;4768;42.664;23.240;2022-09-03T00:50:40;0.10;;;0.10;;
9459;SDS011;4768;42.664;23.240;2022-09-03T00:53:17;0.63;;;0.20;;
9459;SDS011;4768;42.664;23.240;2022-09-03T00:55:55;0.03;;;0.03;;
9459;SDS011;4768;42.664;23.240;2022-09-03T00:58:39;0.20;;;0.20;;
9459;SDS011;4768;42.664;23.240;2022-09-03T01:01:20;0.10;;;0.10;;
9459;SDS011;4768;42.664;23.240;2022-09-03T01:03:57;0.07;;;0.07;;
9459;SDS011;4768;42.664;23.240;2022-09-03T01:06:34;0.20;;;0.20;;
9459;SDS011;4768;42.664;23.240;2022-09-03T01:09:11;0.20;;;0.20;;
9459;SDS011;4768;42.664;23.240;2022-09-03T01:11:53;0.33;;;0.33;;
9459;SDS011;4768;42.664;23.240;2022-09-03T01:14:36;0.00;;;0.00;;
9459;SDS011;4768;42.664;23.240;2022-09-03T01:17:15;0.53;;;0.40;;
9459;SDS011;4768;42.664;23.240;2022-09-03T01:22:56;0.10;;;0.10;;
9459;SDS011;4768;42.664;23.240;2022-09-03T01:25:48;0.37;;;0.37;;
9459;SDS011;4768;42.664;23.240;2022-09-03T01:28:25;0.10;;;0.10;;
9459;SDS011;4768;42.664;23.240;2022-09-03T01:31:00;0.00;;;0.00;;
9459;SDS011;4768;42.664;23.240;2022-09-03T01:33:36;0.00;;;0.00;;
9459;SDS011;4768;42.664;23.240;2022-09-03T01:36:08;1.20;;;0.30;;
9459;SDS011;4768;42.664;23.240;2022-09-03T01:38:46;0.33;;;0.20;;
9459;SDS011;4768;42.664;23.240;2022-09-03T01:41:18;0.83;;;0.43;;
9459;SDS011;4768;42.664;23.240;2022-09-03T01:44:16;0.57;;;0.43;;
9459;SDS011;4768;42.664;23.240;2022-09-03T01:46:55;0.87;;;0.27;;
9459;SDS011;4768;42.664;23.240;2022-09-03T01:49:40;0.33;;;0.30;;
9459;SDS011;4768;42.664;23.240;2022-09-03T01:52:13;0.10;;;0.10;;
9459;SDS011;4768;42.664;23.240;2022-09-03T01:54:59;0.10;;;0.10;;
9459;SDS011;4768;42.664;23.240;2022-09-03T01:57:40;0.30;;;0.10;;
9459;SDS011;4768;42.664;23.240;2022-09-03T02:00:14;0.20;;;0.10;;
9459;SDS011;4768;42.664;23.240;2022-09-03T02:02:45;0.33;;;0.33;;
9459;SDS011;4768;42.664;23.240;2022-09-03T02:05:14;0.50;;;0.50;;
9459;SDS011;4768;42.664;23.240;2022-09-03T02:07:43;0.07;;;0.07;;
9459;SDS011;4768;42.664;23.240;2022-09-03T02:10:13;0.43;;;0.10;;
9459;SDS011;4768;42.664;23.240;2022-09-03T02:12:43;0.13;;;0.13;;
9459;SDS011;4768;42.664;23.240;2022-09-03T02:15:14;0.07;;;0.07;;
9459;SDS011;4768;42.664;23.240;2022-09-03T02:17:43;0.10;;;0.10;;
9459;SDS011;4768;42.664;23.240;2022-09-03T02:20:14;0.00;;;0.00;;
9459;SDS011;4768;42.664;23.240;2022-09-03T02:22:45;0.27;;;0.27;;
9459;SDS011;4768;42.664;23.240;2022-09-03T02:25:13;0.10;;;0.10;;
9459;SDS011;4768;42.664;23.240;2022-09-03T02:27:40;0.50;;;0.20;;
9459;SDS011;4768;42.664;23.240;2022-09-03T02:30:09;0.37;;;0.20;;
9459;SDS011;4768;42.664;23.240;2022-09-03T02:32:38;0.00;;;0.00;;
9459;SDS011;4768;42.664;23.240;2022-09-03T02:35:05;0.10;;;0.10;;
9459;SDS011;4768;42.664;23.240;2022-09-03T02:37:33;0.10;;;0.10;;
9459;SDS011;4768;42.664;23.240;2022-09-03T02:40:00;0.27;;;0.17;;
9459;SDS011;4768;42.664;23.240;2022-09-03T02:42:30;0.00;;;0.00;;
9459;SDS011;4768;42.664;23.240;2022-09-03T02:44:59;0.10;;;0.10;;
9459;SDS011;4768;42.664;23.240;2022-09-03T02:47:32;0.90;;;0.20;;
9459;SDS011;4768;42.664;23.240;2022-09-03T02:50:03;0.67;;;0.40;;
9459;SDS011;4768;42.664;23.240;2022-09-03T02:52:30;0.00;;;0.00;;
9459;SDS011;4768;42.664;23.240;2022-09-03T02:54:57;0.20;;;0.20;;
9459;SDS011;4768;42.664;23.240;2022-09-03T02:57:23;0.23;;;0.23;;
9459;SDS011;4768;42.664;23.240;2022-09-03T02:59:50;0.17;;;0.17;;
9459;SDS011;4768;42.664;23.240;2022-09-03T03:02:17;0.10;;;0.10;;
9459;SDS011;4768;42.664;23.240;2022-09-03T03:04:43;0.30;;;0.20;;
9459;SDS011;4768;42.664;23.240;2022-09-03T03:07:12;0.20;;;0.13;;
9459;SDS011;4768;42.664;23.240;2022-09-03T03:09:38;0.03;;;0.03;;
9459;SDS011;4768;42.664;23.240;2022-09-03T03:12:05;0.73;;;0.60;;
9459;SDS011;4768;42.664;23.240;2022-09-03T03:14:34;0.30;;;0.30;;
9459;SDS011;4768;42.664;23.240;2022-09-03T03:17:01;0.60;;;0.33;;
9459;SDS011;4768;42.664;23.240;2022-09-03T03:19:27;0.13;;;0.13;;
9459;SDS011;4768;42.664;23.240;2022-09-03T03:21:54;0.53;;;0.27;;
9459;SDS011;4768;42.664;23.240;2022-09-03T03:24:22;0.23;;;0.17;;
9459;SDS011;4768;42.664;23.240;2022-09-03T03:26:49;0.87;;;0.40;;
9459;SDS011;4768;42.664;23.240;2022-09-03T03:29:16;0.17;;;0.17;;
9459;SDS011;4768;42.664;23.240;2022-09-03T03:31:43;0.43;;;0.40;;
9459;SDS011;4768;42.664;23.240;2022-09-03T03:34:10;0.20;;;0.20;;
9459;SDS011;4768;42.664;23.240;2022-09-03T03:36:37;1.27;;;0.47;;
9459;SDS011;4768;42.664;23.240;2022-09-03T03:39:03;0.47;;;0.33;;
9459;SDS011;4768;42.664;23.240;2022-09-03T03:41:32;0.30;;;0.20;;
9459;SDS011;4768;42.664;23.240;2022-09-03T03:44:01;0.10;;;0.10;;
9459;SDS011;4768;42.664;23.240;2022-09-03T03:46:29;1.33;;;0.60;;
9459;SDS011;4768;42.664;23.240;2022-09-03T03:48:57;0.53;;;0.47;;
9459;SDS011;4768;42.664;23.240;2022-09-03T03:51:25;0.63;;;0.40;;
9459;SDS011;4768;42.664;23.240;2022-09-03T03:53:52;0.20;;;0.20;;
9459;SDS011;4768;42.664;23.240;2022-09-03T03:56:21;0.00;;;0.00;;
9459;SDS011;4768;42.664;23.240;2022-09-03T03:58:51;0.00;;;0.00;;
9459;SDS011;4768;42.664;23.240;2022-09-03T04:01:20;0.27;;;0.27;;
9459;SDS011;4768;42.664;23.240;2022-09-03T04:03:47;0.30;;;0.30;;
9459;SDS011;4768;42.664;23.240;2022-09-03T04:06:15;0.27;;;0.10;;
9459;SDS011;4768;42.664;23.240;2022-09-03T04:08:44;0.10;;;0.10;;
9459;SDS011;4768;42.664;23.240;2022-09-03T04:11:12;0.00;;;0.00;;
9459;SDS011;4768;42.664;23.240;2022-09-03T04:13:42;0.13;;;0.13;;
9459;SDS011;4768;42.664;23.240;2022-09-03T04:16:11;0.00;;;0.00;;
9459;SDS011;4768;42.664;23.240;2022-09-03T04:18:39;0.00;;;0.00;;
9459;SDS011;4768;42.664;23.240;2022-09-03T04:21:07;0.00;;;0.00;;
9459;SDS011;4768;42.664;23.240;2022-09-03T04:23:36;0.33;;;0.20;;
9459;SDS011;4768;42.664;23.240;2022-09-03T04:26:04;0.40;;;0.30;;
9459;SDS011;4768;42.664;23.240;2022-09-03T04:28:32;0.10;;;0.10;;
9459;SDS011;4768;42.664;23.240;2022-09-03T04:31:00;0.20;;;0.20;;
9459;SDS011;4768;42.664;23.240;2022-09-03T04:33:29;0.10;;;0.10;;
9459;SDS011;4768;42.664;23.240;2022-09-03T04:36:06;0.50;;;0.23;;
9459;SDS011;4768;42.664;23.240;2022-09-03T04:38:35;0.40;;;0.33;;
9459;SDS011;4768;42.664;23.240;2022-09-03T04:41:03;0.57;;;0.23;;
9459;SDS011;4768;42.664;23.240;2022-09-03T04:43:29;0.50;;;0.20;;
9459;SDS011;4768;42.664;23.240;2022-09-03T04:45:57;1.17;;;0.23;;
9459;SDS011;4768;42.664;23.240;2022-09-03T04:48:24;0.30;;;0.30;;
9459;SDS011;4768;42.664;23.240;2022-09-03T04:50:53;0.37;;;0.10;;
9459;SDS011;4768;42.664;23.240;2022-09-03T04:53:20;0.00;;;0.00;;
9459;SDS011;4768;42.664;23.240;2022-09-03T04:55:47;0.30;;;0.30;;
9459;SDS011;4768;42.664;23.240;2022-09-03T04:58:15;0.30;;;0.30;;
9459;SDS011;4768;42.664;23.240;2022-09-03T05:00:42;0.20;;;0.10;;
9459;SDS011;4768;42.664;23.240;2022-09-03T05:03:09;0.10;;;0.10;;
9459;SDS011;4768;42.664;23.240;2022-09-03T05:05:35;0.10;;;0.10;;
9459;SDS011;4768;42.664;23.240;2022-09-03T05:08:04;0.10;;;0.10;;
9459;SDS011;4768;42.664;23.240;2022-09-03T05:10:31;0.90;;;0.43;;
9459;SDS011;4768;42.664;23.240;2022-09-03T05:12:58;0.10;;;0.10;;
9459;SDS011;4768;42.664;23.240;2022-09-03T05:15:26;0.17;;;0.17;;
9459;SDS011;4768;42.664;23.240;2022-09-03T05:17:56;0.27;;;0.27;;
9459;SDS011;4768;42.664;23.240;2022-09-03T05:20:25;0.30;;;0.30;;
9459;SDS011;4768;42.664;23.240;2022-09-03T05:22:53;0.40;;;0.40;;
9459;SDS011;4768;42.664;23.240;2022-09-03T05:25:21;1.03;;;0.43;;
9459;SDS011;4768;42.664;23.240;2022-09-03T05:27:49;0.30;;;0.30;;
9459;SDS011;4768;42.664;23.240;2022-09-03T05:30:15;1.13;;;0.40;;
9459;SDS011;4768;42.664;23.240;2022-09-03T05:32:43;0.57;;;0.57;;
9459;SDS011;4768;42.664;23.240;2022-09-03T05:35:09;0.23;;;0.23;;
9459;SDS011;4768;42.664;23.240;2022-09-03T05:37:36;0.00;;;0.00;;
9459;SDS011;4768;42.664;23.240;2022-09-03T05:40:04;0.20;;;0.17;;
9459;SDS011;4768;42.664;23.240;2022-09-03T05:42:35;0.27;;;0.20;;
9459;SDS011;4768;42.664;23.240;2022-09-03T05:45:04;0.33;;;0.33;;
9459;SDS011;4768;42.664;23.240;2022-09-03T05:47:35;0.20;;;0.20;;
9459;SDS011;4768;42.664;23.240;2022-09-03T05:50:03;0.00;;;0.00;;
9459;SDS011;4768;42.664;23.240;2022-09-03T05:52:31;0.30;;;0.30;;
9459;SDS011;4768;42.664;23.240;2022-09-03T05:54:58;0.20;;;0.20;;
9459;SDS011;4768;42.664;23.240;2022-09-03T05:57:25;0.10;;;0.10;;
9459;SDS011;4768;42.664;23.240;2022-09-03T05:59:53;0.10;;;0.10;;
9459;SDS011;4768;42.664;23.240;2022-09-03T06:02:19;0.03;;;0.03;;
9459;SDS011;4768;42.664;23.240;2022-09-03T06:04:47;0.07;;;0.07;;
9459;SDS011;4768;42.664;23.240;2022-09-03T06:07:15;0.30;;;0.30;;
9459;SDS011;4768;42.664;23.240;2022-09-03T06:09:41;0.53;;;0.30;;
9459;SDS011;4768;42.664;23.240;2022-09-03T06:12:08;0.20;;;0.20;;
9459;SDS011;4768;42.664;23.240;2022-09-03T06:14:35;0.10;;;0.10;;
9459;SDS011;4768;42.664;23.240;2022-09-03T06:17:03;0.50;;;0.30;;
9459;SDS011;4768;42.664;23.240;2022-09-03T06:19:30;1.27;;;0.73;;
9459;SDS011;4768;42.664;23.240;2022-09-03T06:21:56;0.30;;;0.30;;
9459;SDS011;4768;42.664;23.240;2022-09-03T06:24:23;0.57;;;0.40;;
9459;SDS011;4768;42.664;23.240;2022-09-03T06:26:51;0.30;;;0.30;;
9459;SDS011;4768;42.664;23.240;2022-09-03T06:29:18;0.30;;;0.30;;
9459;SDS011;4768;42.664;23.240;2022-09-03T06:31:45;0.37;;;0.37;;
9459;SDS011;4768;42.664;23.240;2022-09-03T06:34:14;0.27;;;0.27;;
9459;SDS011;4768;42.664;23.240;2022-09-03T06:36:42;0.30;;;0.30;;
9459;SDS011;4768;42.664;23.240;2022-09-03T06:39:09;0.33;;;0.30;;
9459;SDS011;4768;42.664;23.240;2022-09-03T06:41:36;3.67;;;3.33;;
9459;SDS011;4768;42.664;23.240;2022-09-03T06:44:04;4.80;;;4.40;;
9459;SDS011;4768;42.664;23.240;2022-09-03T06:46:36;4.80;;;4.30;;
9459;SDS011;4768;42.664;23.240;2022-09-03T06:49:06;4.57;;;4.17;;
9459;SDS011;4768;42.664;23.240;2022-09-03T06:51:35;4.60;;;4.20;;
9459;SDS011;4768;42.664;23.240;2022-09-03T06:54:03;8.00;;;5.00;;
9459;SDS011;4768;42.664;23.240;2022-09-03T06:56:31;6.13;;;4.90;;
9459;SDS011;4768;42.664;23.240;2022-09-03T06:59:03;6.70;;;4.30;;
9459;SDS011;4768;42.664;23.240;2022-09-03T07:01:31;6.13;;;5.50;;
9459;SDS011;4768;42.664;23.240;2022-09-03T07:04:00;5.67;;;5.17;;
9459;SDS011;4768;42.664;23.240;2022-09-03T07:06:29;6.27;;;5.47;;
9459;SDS011;4768;42.664;23.240;2022-09-03T07:08:58;6.10;;;5.50;;
9459;SDS011;4768;42.664;23.240;2022-09-03T07:11:26;5.90;;;5.30;;
9459;SDS011;4768;42.664;23.240;2022-09-03T07:13:58;6.43;;;5.60;;
9459;SDS011;4768;42.664;23.240;2022-09-03T07:16:25;7.77;;;6.07;;
9459;SDS011;4768;42.664;23.240;2022-09-03T07:18:53;7.40;;;6.10;;
9459;SDS011;4768;42.664;23.240;2022-09-03T07:21:21;6.67;;;5.97;;
9459;SDS011;4768;42.664;23.240;2022-09-03T07:23:49;6.40;;;5.17;;
9459;SDS011;4768;42.664;23.240;2022-09-03T07:26:19;6.07;;;5.40;;
9459;SDS011;4768;42.664;23.240;2022-09-03T07:28:47;5.10;;;4.60;;
9459;SDS011;4768;42.664;23.240;2022-09-03T07:31:15;5.40;;;4.90;;
9459;SDS011;4768;42.664;23.240;2022-09-03T07:33:46;5.53;;;4.87;;
9459;SDS011;4768;42.664;23.240;2022-09-03T07:36:14;5.27;;;4.77;;
9459;SDS011;4768;42.664;23.240;2022-09-03T07:38:42;6.67;;;5.30;;
9459;SDS011;4768;42.664;23.240;2022-09-03T07:41:10;5.90;;;5.40;;
9459;SDS011;4768;42.664;23.240;2022-09-03T07:43:40;5.80;;;5.20;;
9459;SDS011;4768;42.664;23.240;2022-09-03T07:46:11;7.13;;;4.77;;
9459;SDS011;4768;42.664;23.240;2022-09-03T07:48:38;6.43;;;5.83;;
9459;SDS011;4768;42.664;23.240;2022-09-03T07:51:05;5.93;;;5.33;;
9459;SDS011;4768;42.664;23.240;2022-09-03T07:53:33;4.97;;;4.37;;
9459;SDS011;4768;42.664;23.240;2022-09-03T07:56:00;5.50;;;5.00;;
9459;SDS011;4768;42.664;23.240;2022-09-03T07:58:28;5.87;;;5.27;;
9459;SDS011;4768;42.664;23.240;2022-09-03T08:00:57;5.73;;;5.23;;
9459;SDS011;4768;42.664;23.240;2022-09-03T08:03:24;5.53;;;5.00;;
9459;SDS011;4768;42.664;23.240;2022-09-03T08:05:51;5.33;;;4.83;;
9459;SDS011;4768;42.664;23.240;2022-09-03T08:08:18;5.77;;;5.27;;
9459;SDS011;4768;42.664;23.240;2022-09-03T08:10:44;5.83;;;5.30;;
9459;SDS011;4768;42.664;23.240;2022-09-03T08:13:11;5.73;;;5.17;;
9459;SDS011;4768;42.664;23.240;2022-09-03T08:15:38;5.30;;;4.83;;
9459;SDS011;4768;42.664;23.240;2022-09-03T08:18:08;5.60;;;5.10;;
9459;SDS011;4768;42.664;23.240;2022-09-03T08:20:35;5.87;;;5.30;;
9459;SDS011;4768;42.664;23.240;2022-09-03T08:23:02;6.13;;;5.53;;
9459;SDS011;4768;42.664;23.240;2022-09-03T08:25:29;5.63;;;5.13;;
9459;SDS011;4768;42.664;23.240;2022-09-03T08:27:57;5.70;;;5.20;;
9459;SDS011;4768;42.664;23.240;2022-09-03T08:30:24;5.67;;;5.07;;
9459;SDS011;4768;42.664;23.240;2022-09-03T08:32:51;4.93;;;4.53;;
9459;SDS011;4768;42.664;23.240;2022-09-03T08:35:20;6.30;;;5.70;;
9459;SDS011;4768;42.664;23.240;2022-09-03T08:37:48;4.97;;;4.50;;
9459;SDS011;4768;42.664;23.240;2022-09-03T08:40:18;4.60;;;4.20;;
9459;SDS011;4768;42.664;23.240;2022-09-03T08:42:51;5.07;;;4.60;;
9459;SDS011;4768;42.664;23.240;2022-09-03T08:45:27;4.73;;;4.33;;
9459;SDS011;4768;42.664;23.240;2022-09-03T08:47:57;5.97;;;5.47;;
9459;SDS011;4768;42.664;23.240;2022-09-03T08:50:32;5.70;;;5.20;;
9459;SDS011;4768;42.664;23.240;2022-09-03T08:53:06;6.10;;;5.50;;
9459;SDS011;4768;42.664;23.240;2022-09-03T08:55:38;5.17;;;4.20;;
9459;SDS011;4768;42.664;23.240;2022-09-03T08:58:12;4.67;;;4.27;;
9459;SDS011;4768;42.664;23.240;2022-09-03T09:00:44;5.97;;;4.33;;
9459;SDS011;4768;42.664;23.240;2022-09-03T09:03:20;4.47;;;4.07;;
9459;SDS011;4768;42.664;23.240;2022-09-03T09:06:02;7.43;;;4.50;;
9459;SDS011;4768;42.664;23.240;2022-09-03T09:08:37;5.07;;;4.63;;
9459;SDS011;4768;42.664;23.240;2022-09-03T09:11:13;4.63;;;4.23;;
9459;SDS011;4768;42.664;23.240;2022-09-03T09:13:48;5.27;;;4.70;;
9459;SDS011;4768;42.664;23.240;2022-09-03T09:16:22;6.13;;;4.67;;
9459;SDS011;4768;42.664;23.240;2022-09-03T09:19:00;5.33;;;4.83;;
9459;SDS011;4768;42.664;23.240;2022-09-03T09:21:38;5.50;;;4.30;;
9459;SDS011;4768;42.664;23.240;2022-09-03T09:24:12;5.07;;;4.63;;
9459;SDS011;4768;42.664;23.240;2022-09-03T09:27:02;5.10;;;4.60;;
9459;SDS011;4768;42.664;23.240;2022-09-03T09:29:32;4.67;;;4.10;;
9459;SDS011;4768;42.664;23.240;2022-09-03T09:32:01;4.17;;;3.83;;
9459;SDS011;4768;42.664;23.240;2022-09-03T09:34:32;4.77;;;4.10;;
9459;SDS011;4768;42.664;23.240;2022-09-03T09:37:01;4.73;;;4.33;;
9459;SDS011;4768;42.664;23.240;2022-09-03T09:39:31;4.60;;;4.20;;
9459;SDS011;4768;42.664;23.240;2022-09-03T09:41:58;4.60;;;4.20;;
9459;SDS011;4768;42.664;23.240;2022-09-03T09:44:26;4.50;;;4.10;;
9459;SDS011;4768;42.664;23.240;2022-09-03T09:47:00;4.17;;;3.77;;
9459;SDS011;4768;42.664;23.240;2022-09-03T09:49:31;4.77;;;4.37;;
9459;SDS011;4768;42.664;23.240;2022-09-03T09:52:02;4.50;;;4.10;;
9459;SDS011;4768;42.664;23.240;2022-09-03T09:54:33;6.00;;;4.50;;
9459;SDS011;4768;42.664;23.240;2022-09-03T09:57:00;4.83;;;4.33;;
9459;SDS011;4768;42.664;23.240;2022-09-03T09:59:29;4.97;;;4.57;;
9459;SDS011;4768;42.664;23.240;2022-09-03T10:02:06;4.67;;;4.30;;
9459;SDS011;4768;42.664;23.240;2022-09-03T10:04:35;5.40;;;4.90;;
9459;SDS011;4768;42.664;23.240;2022-09-03T10:07:06;5.00;;;4.50;;
9459;SDS011;4768;42.664;23.240;2022-09-03T10:09:56;4.63;;;4.23;;
9459;SDS011;4768;42.664;23.240;2022-09-03T10:12:24;4.97;;;4.47;;
9459;SDS011;4768;42.664;23.240;2022-09-03T10:14:56;4.30;;;3.93;;
9459;SDS011;4768;42.664;23.240;2022-09-03T10:17:29;5.00;;;4.50;;
9459;SDS011;4768;42.664;23.240;2022-09-03T10:20:07;5.03;;;4.60;;
9459;SDS011;4768;42.664;23.240;2022-09-03T10:22:56;3.87;;;3.57;;
9459;SDS011;4768;42.664;23.240;2022-09-03T10:25:29;4.73;;;4.33;;
9459;SDS011;4768;42.664;23.240;2022-09-03T10:28:04;4.67;;;4.27;;
9459;SDS011;4768;42.664;23.240;2022-09-03T10:30:36;5.67;;;5.00;;
9459;SDS011;4768;42.664;23.240;2022-09-03T10:33:12;4.73;;;4.27;;
9459;SDS011;4768;42.664;23.240;2022-09-03T10:35:45;4.30;;;3.90;;
9459;SDS011;4768;42.664;23.240;2022-09-03T10:38:19;5.17;;;4.27;;
9459;SDS011;4768;42.664;23.240;2022-09-03T10:40:56;4.47;;;4.07;;
9459;SDS011;4768;42.664;23.240;2022-09-03T10:43:39;3.87;;;3.57;;
9459;SDS011;4768;42.664;23.240;2022-09-03T10:46:20;4.17;;;3.87;;
9459;SDS011;4768;42.664;23.240;2022-09-03T10:48:58;4.40;;;4.00;;
9459;SDS011;4768;42.664;23.240;2022-09-03T10:51:39;4.23;;;3.83;;
9459;SDS011;4768;42.664;23.240;2022-09-03T10:54:17;4.03;;;3.73;;
9459;SDS011;4768;42.664;23.240;2022-09-03T10:56:58;3.63;;;3.33;;
9459;SDS011;4768;42.664;23.240;2022-09-03T10:59:34;4.07;;;3.73;;
9459;SDS011;4768;42.664;23.240;2022-09-03T11:02:15;4.30;;;3.90;;
9459;SDS011;4768;42.664;23.240;2022-09-03T11:04:51;4.20;;;3.80;;
9459;SDS011;4768;42.664;23.240;2022-09-03T11:07:24;3.80;;;3.50;;
9459;SDS011;4768;42.664;23.240;2022-09-03T11:10:03;4.50;;;4.10;;
9459;SDS011;4768;42.664;23.240;2022-09-03T11:12:38;3.97;;;3.67;;
9459;SDS011;4768;42.664;23.240;2022-09-03T11:15:09;5.17;;;4.10;;
9459;SDS011;4768;42.664;23.240;2022-09-03T11:17:41;8.30;;;3.93;;
9459;SDS011;4768;42.664;23.240;2022-09-03T11:20:16;4.47;;;4.07;;
9459;SDS011;4768;42.664;23.240;2022-09-03T11:22:45;4.10;;;3.70;;
9459;SDS011;4768;42.664;23.240;2022-09-03T11:25:18;4.03;;;3.73;;
9459;SDS011;4768;42.664;23.240;2022-09-03T11:27:52;4.97;;;4.20;;
9459;SDS011;4768;42.664;23.240;2022-09-03T11:30:28;3.90;;;3.60;;
9459;SDS011;4768;42.664;23.240;2022-09-03T11:33:05;4.43;;;3.40;;
9459;SDS011;4768;42.664;23.240;2022-09-03T11:35:37;3.93;;;3.47;;
9459;SDS011;4768;42.664;23.240;2022-09-03T11:38:07;3.77;;;3.47;;
9459;SDS011;4768;42.664;23.240;2022-09-03T11:40:57;3.27;;;2.97;;
9459;SDS011;4768;42.664;23.240;2022-09-03T11:43:27;4.53;;;3.67;;
9459;SDS011;4768;42.664;23.240;2022-09-03T11:46:03;3.23;;;3.00;;
9459;SDS011;4768;42.664;23.240;2022-09-03T11:48:37;3.55;;;3.25;;
9459;SDS011;4768;42.664;23.240;2022-09-03T11:51:20;3.63;;;3.33;;
9459;SDS011;4768;42.664;23.240;2022-09-03T11:53:58;3.17;;;2.88;;
9459;SDS011;4768;42.664;23.240;2022-09-03T11:56:27;3.97;;;3.67;;
9459;SDS011;4768;42.664;23.240;2022-09-03T11:58:59;4.90;;;3.30;;
9459;SDS011;4768;42.664;23.240;2022-09-03T12:01:29;3.23;;;2.93;;
9459;SDS011;4768;42.664;23.240;2022-09-03T12:03:57;3.70;;;3.38;;
9459;SDS011;4768;42.664;23.240;2022-09-03T12:06:35;3.58;;;3.28;;
9459;SDS011;4768;42.664;23.240;2022-09-03T12:09:17;3.38;;;3.08;;
9459;SDS011;4768;42.664;23.240;2022-09-03T12:11:57;3.58;;;3.28;;
9459;SDS011;4768;42.664;23.240;2022-09-03T12:14:35;3.20;;;3.00;;
9459;SDS011;4768;42.664;23.240;2022-09-03T12:17:14;4.47;;;3.13;;
9459;SDS011;4768;42.664;23.240;2022-09-03T12:19:51;2.88;;;2.67;;
9459;SDS011;4768;42.664;23.240;2022-09-03T12:22:20;3.90;;;2.97;;
9459;SDS011;4768;42.664;23.240;2022-09-03T12:24:48;3.85;;;3.30;;
9459;SDS011;4768;42.664;23.240;2022-09-03T12:27:17;3.97;;;3.63;;
9459;SDS011;4768;42.664;23.240;2022-09-03T12:29:52;4.10;;;3.70;;
9459;SDS011;4768;42.664;23.240;2022-09-03T12:32:24;9.93;;;3.70;;
9459;SDS011;4768;42.664;23.240;2022-09-03T12:34:54;4.43;;;3.10;;
9459;SDS011;4768;42.664;23.240;2022-09-03T12:37:21;5.38;;;3.47;;
9459;SDS011;4768;42.664;23.240;2022-09-03T12:39:50;3.90;;;3.55;;
9459;SDS011;4768;42.664;23.240;2022-09-03T12:42:21;5.80;;;3.55;;
9459;SDS011;4768;42.664;23.240;2022-09-03T12:44:51;4.13;;;3.72;;
9459;SDS011;4768;42.664;23.240;2022-09-03T12:47:18;3.58;;;3.28;;
9459;SDS011;4768;42.664;23.240;2022-09-03T12:49:47;7.57;;;4.22;;
9459;SDS011;4768;42.664;23.240;2022-09-03T12:52:16;3.75;;;3.13;;
9459;SDS011;4768;42.664;23.240;2022-09-03T12:54:48;3.70;;;3.35;;
9459;SDS011;4768;42.664;23.240;2022-09-03T12:57:21;3.63;;;3.33;;
9459;SDS011;4768;42.664;23.240;2022-09-03T12:59:52;4.38;;;3.75;;
9459;SDS011;4768;42.664;23.240;2022-09-03T13:02:25;3.53;;;3.22;;
9459;SDS011;4768;42.664;23.240;2022-09-03T13:04:57;3.17;;;2.90;;
9459;SDS011;4768;42.664;23.240;2022-09-03T13:07:28;4.22;;;3.00;;
9459;SDS011;4768;42.664;23.240;2022-09-03T13:10:02;2.75;;;2.55;;
9459;SDS011;4768;42.664;23.240;2022-09-03T13:12:41;3.10;;;2.80;;
9459;SDS011;4768;42.664;23.240;2022-09-03T13:15:22;4.00;;;3.17;;
9459;SDS011;4768;42.664;23.240;2022-09-03T13:17:56;3.35;;;3.05;;
9459;SDS011;4768;42.664;23.240;2022-09-03T13:20:34;4.72;;;2.83;;
9459;SDS011;4768;42.664;23.240;2022-09-03T13:23:15;4.10;;;3.17;;
9459;SDS011;4768;42.664;23.240;2022-09-03T13:25:57;3.58;;;3.03;;
9459;SDS011;4768;42.664;23.240;2022-09-03T13:28:39;3.90;;;3.50;;
9459;SDS011;4768;42.664;23.240;2022-09-03T13:31:21;4.65;;;3.50;;
9459;SDS011;4768;42.664;23.240;2022-09-03T13:33:55;4.10;;;3.53;;
9459;SDS011;4768;42.664;23.240;2022-09-03T13:36:27;3.97;;;3.60;;
9459;SDS011;4768;42.664;23.240;2022-09-03T13:38:59;3.75;;;3.45;;
9459;SDS011;4768;42.664;23.240;2022-09-03T13:41:33;3.60;;;3.30;;
9459;SDS011;4768;42.664;23.240;2022-09-03T13:44:07;3.70;;;3.28;;
9459;SDS011;4768;42.664;23.240;2022-09-03T13:46:41;4.05;;;3.45;;
9459;SDS011;4768;42.664;23.240;2022-09-03T13:49:19;3.60;;;3.30;;
9459;SDS011;4768;42.664;23.240;2022-09-03T13:52:15;3.43;;;3.13;;
9459;SDS011;4768;42.664;23.240;2022-09-03T13:54:49;3.45;;;3.15;;
9459;SDS011;4768;42.664;23.240;2022-09-03T13:57:31;3.65;;;3.35;;
9459;SDS011;4768;42.664;23.240;2022-09-03T14:00:05;3.75;;;3.35;;
9459;SDS011;4768;42.664;23.240;2022-09-03T14:02:41;3.15;;;2.95;;
9459;SDS011;4768;42.664;23.240;2022-09-03T14:05:17;3.22;;;2.92;;
9459;SDS011;4768;42.664;23.240;2022-09-03T14:07:57;5.65;;;3.38;;
9459;SDS011;4768;42.664;23.240;2022-09-03T14:10:36;3.70;;;3.40;;
9459;SDS011;4768;42.664;23.240;2022-09-03T14:13:18;5.15;;;3.55;;
9459;SDS011;4768;42.664;23.240;2022-09-03T14:15:57;3.00;;;2.80;;
9459;SDS011;4768;42.664;23.240;2022-09-03T14:18:34;3.97;;;2.60;;
9459;SDS011;4768;42.664;23.240;2022-09-03T14:21:07;3.15;;;2.78;;
9459;SDS011;4768;42.664;23.240;2022-09-03T14:23:39;3.13;;;2.92;;
9459;SDS011;4768;42.664;23.240;2022-09-03T14:26:16;3.25;;;2.95;;
9459;SDS011;4768;42.664;23.240;2022-09-03T14:28:45;3.45;;;3.15;;
9459;SDS011;4768;42.664;23.240;2022-09-03T14:31:18;3.42;;;3.13;;
9459;SDS011;4768;42.664;23.240;2022-09-03T14:33:55;4.70;;;2.70;;
9459;SDS011;4768;42.664;23.240;2022-09-03T14:36:30;3.08;;;2.78;;
9459;SDS011;4768;42.664;23.240;2022-09-03T14:39:14;2.65;;;2.45;;
9459;SDS011;4768;42.664;23.240;2022-09-03T14:42:02;3.40;;;2.78;;
9459;SDS011;4768;42.664;23.240;2022-09-03T14:47:53;2.60;;;2.13;;
9459;SDS011;4768;42.664;23.240;2022-09-03T14:50:40;2.63;;;2.42;;
9459;SDS011;4768;42.664;23.240;2022-09-03T14:53:39;3.40;;;2.65;;
9459;SDS011;4768;42.664;23.240;2022-09-03T14:56:21;3.22;;;2.92;;
9459;SDS011;4768;42.664;23.240;2022-09-03T14:59:06;2.80;;;2.40;;
9459;SDS011;4768;42.664;23.240;2022-09-03T15:02:03;3.78;;;3.08;;
9459;SDS011;4768;42.664;23.240;2022-09-03T15:04:50;2.83;;;2.63;;
9459;SDS011;4768;42.664;23.240;2022-09-03T15:07:32;3.67;;;3.10;;
9459;SDS011;4768;42.664;23.240;2022-09-03T15:10:11;5.45;;;3.10;;
9459;SDS011;4768;42.664;23.240;2022-09-03T15:12:45;3.20;;;2.57;;
9459;SDS011;4768;42.664;23.240;2022-09-03T15:15:16;6.50;;;2.80;;
9459;SDS011;4768;42.664;23.240;2022-09-03T15:17:47;3.33;;;3.03;;
9459;SDS011;4768;42.664;23.240;2022-09-03T15:20:25;3.43;;;3.13;;
9459;SDS011;4768;42.664;23.240;2022-09-03T15:23:11;4.83;;;3.00;;
9459;SDS011;4768;42.664;23.240;2022-09-03T15:28:52;3.97;;;2.93;;
9459;SDS011;4768;42.664;23.240;2022-09-03T15:31:33;5.87;;;3.17;;
9459;SDS011;4768;42.664;23.240;2022-09-03T15:34:10;3.53;;;3.23;;
9459;SDS011;4768;42.664;23.240;2022-09-03T15:36:53;3.13;;;2.93;;
9459;SDS011;4768;42.664;23.240;2022-09-03T15:39:24;4.00;;;3.20;;
9459;SDS011;4768;42.664;23.240;2022-09-03T15:41:54;3.30;;;2.97;;